sensor_id;sensor_type;location;lat;lon;timestamp;P1;durP1;ratioP1;P2;durP2;ratioP2
76617;SDS011;65509;42.816;74.648;2023-05-20T00:01:30;22.45;;;3.53;;
76617;SDS011;65509;42.816;74.648;2023-05-20T00:03:55;25.25;;;3.83;;
76617;SDS011;65509;42.816;74.648;2023-05-20T00:06:21;25.10;;;3.97;;
76617;SDS011;65509;42.816;74.648;2023-05-20T00:08:47;12.38;;;2.58;;
76617;SDS011;65509;42.816;74.648;2023-05-20T00:11:12;24.85;;;3.60;;
76617;SDS011;65509;42.816;74.648;2023-05-20T00:13:38;19.98;;;2.63;;
76617;SDS011;65509;42.816;74.648;2023-05-20T00:16:04;20.17;;;2.90;;
76617;SDS011;65509;42.816;74.648;2023-05-20T00:18:29;12.30;;;2.28;;
76617;SDS011;65509;42.816;74.648;2023-05-20T00:20:56;22.00;;;5.18;;
76617;SDS011;65509;42.816;74.648;2023-05-20T00:23:22;31.55;;;4.18;;
76617;SDS011;65509;42.816;74.648;2023-05-20T00:25:48;24.60;;;3.58;;
76617;SDS011;65509;42.816;74.648;2023-05-20T00:28:13;23.15;;;3.15;;
76617;SDS011;65509;42.816;74.648;2023-05-20T00:30:39;15.85;;;2.40;;
76617;SDS011;65509;42.816;74.648;2023-05-20T00:33:05;13.75;;;2.13;;
76617;SDS011;65509;42.816;74.648;2023-05-20T00:35:31;16.13;;;2.53;;
76617;SDS011;65509;42.816;74.648;2023-05-20T00:37:56;18.38;;;2.45;;
76617;SDS011;65509;42.816;74.648;2023-05-20T00:40:22;22.20;;;3.13;;
76617;SDS011;65509;42.816;74.648;2023-05-20T00:42:48;15.18;;;2.33;;
76617;SDS011;65509;42.816;74.648;2023-05-20T00:45:14;23.48;;;3.33;;
76617;SDS011;65509;42.816;74.648;2023-05-20T00:47:39;15.50;;;2.78;;
76617;SDS011;65509;42.816;74.648;2023-05-20T00:50:06;11.80;;;2.00;;
76617;SDS011;65509;42.816;74.648;2023-05-20T00:52:32;14.40;;;2.35;;
76617;SDS011;65509;42.816;74.648;2023-05-20T00:54:58;25.85;;;3.50;;
76617;SDS011;65509;42.816;74.648;2023-05-20T00:57:24;19.98;;;3.20;;
76617;SDS011;65509;42.816;74.648;2023-05-20T00:59:50;20.33;;;3.20;;
76617;SDS011;65509;42.816;74.648;2023-05-20T01:02:15;19.80;;;3.22;;
76617;SDS011;65509;42.816;74.648;2023-05-20T01:04:41;23.92;;;3.90;;
76617;SDS011;65509;42.816;74.648;2023-05-20T01:07:11;23.83;;;4.00;;
76617;SDS011;65509;42.816;74.648;2023-05-20T01:09:37;17.80;;;3.03;;
76617;SDS011;65509;42.816;74.648;2023-05-20T01:12:09;19.33;;;3.22;;
76617;SDS011;65509;42.816;74.648;2023-05-20T01:17:01;13.93;;;2.17;;
76617;SDS011;65509;42.816;74.648;2023-05-20T01:22:04;14.68;;;2.88;;
76617;SDS011;65509;42.816;74.648;2023-05-20T01:24:31;25.40;;;4.03;;
76617;SDS011;65509;42.816;74.648;2023-05-20T01:26:57;19.45;;;3.40;;
76617;SDS011;65509;42.816;74.648;2023-05-20T01:29:23;16.05;;;3.35;;
76617;SDS011;65509;42.816;74.648;2023-05-20T01:31:48;14.85;;;2.63;;
76617;SDS011;65509;42.816;74.648;2023-05-20T01:34:14;27.73;;;4.38;;
76617;SDS011;65509;42.816;74.648;2023-05-20T01:36:40;25.35;;;4.03;;
76617;SDS011;65509;42.816;74.648;2023-05-20T01:39:05;20.58;;;3.60;;
76617;SDS011;65509;42.816;74.648;2023-05-20T01:41:31;17.70;;;3.85;;
76617;SDS011;65509;42.816;74.648;2023-05-20T01:43:58;20.58;;;3.83;;
76617;SDS011;65509;42.816;74.648;2023-05-20T01:46:24;29.02;;;4.45;;
76617;SDS011;65509;42.816;74.648;2023-05-20T01:48:49;26.77;;;4.15;;
76617;SDS011;65509;42.816;74.648;2023-05-20T01:51:15;24.10;;;3.78;;
76617;SDS011;65509;42.816;74.648;2023-05-20T01:53:41;22.98;;;3.35;;
76617;SDS011;65509;42.816;74.648;2023-05-20T01:56:07;26.55;;;4.10;;
76617;SDS011;65509;42.816;74.648;2023-05-20T01:58:32;21.20;;;3.22;;
76617;SDS011;65509;42.816;74.648;2023-05-20T02:00:58;17.95;;;3.00;;
76617;SDS011;65509;42.816;74.648;2023-05-20T02:03:24;34.90;;;4.50;;
76617;SDS011;65509;42.816;74.648;2023-05-20T02:05:49;28.63;;;4.07;;
76617;SDS011;65509;42.816;74.648;2023-05-20T02:08:15;33.53;;;4.30;;
76617;SDS011;65509;42.816;74.648;2023-05-20T02:10:40;21.67;;;3.80;;
76617;SDS011;65509;42.816;74.648;2023-05-20T02:13:06;33.28;;;4.60;;
76617;SDS011;65509;42.816;74.648;2023-05-20T02:15:31;28.60;;;4.00;;
76617;SDS011;65509;42.816;74.648;2023-05-20T02:17:56;28.60;;;4.38;;
76617;SDS011;65509;42.816;74.648;2023-05-20T02:20:22;30.35;;;4.10;;
76617;SDS011;65509;42.816;74.648;2023-05-20T02:22:47;27.20;;;4.05;;
76617;SDS011;65509;42.816;74.648;2023-05-20T02:25:13;33.25;;;4.13;;
76617;SDS011;65509;42.816;74.648;2023-05-20T02:27:38;30.17;;;4.10;;
76617;SDS011;65509;42.816;74.648;2023-05-20T02:30:05;28.95;;;3.60;;
76617;SDS011;65509;42.816;74.648;2023-05-20T02:32:30;37.75;;;4.18;;
76617;SDS011;65509;42.816;74.648;2023-05-20T02:34:57;35.10;;;4.45;;
76617;SDS011;65509;42.816;74.648;2023-05-20T02:37:23;39.97;;;4.28;;
76617;SDS011;65509;42.816;74.648;2023-05-20T02:39:48;21.60;;;2.83;;
76617;SDS011;65509;42.816;74.648;2023-05-20T02:42:14;26.25;;;3.55;;
76617;SDS011;65509;42.816;74.648;2023-05-20T02:44:39;27.08;;;3.50;;
76617;SDS011;65509;42.816;74.648;2023-05-20T02:47:05;15.27;;;2.53;;
76617;SDS011;65509;42.816;74.648;2023-05-20T02:49:31;24.38;;;3.20;;
76617;SDS011;65509;42.816;74.648;2023-05-20T02:51:56;24.05;;;3.45;;
76617;SDS011;65509;42.816;74.648;2023-05-20T02:54:22;66.07;;;6.90;;
76617;SDS011;65509;42.816;74.648;2023-05-20T02:56:47;27.42;;;3.60;;
76617;SDS011;65509;42.816;74.648;2023-05-20T02:59:12;30.98;;;3.95;;
76617;SDS011;65509;42.816;74.648;2023-05-20T03:01:38;33.30;;;3.92;;
76617;SDS011;65509;42.816;74.648;2023-05-20T03:04:04;27.30;;;3.65;;
76617;SDS011;65509;42.816;74.648;2023-05-20T03:06:51;28.73;;;3.30;;
76617;SDS011;65509;42.816;74.648;2023-05-20T03:09:37;17.50;;;2.90;;
76617;SDS011;65509;42.816;74.648;2023-05-20T03:12:02;23.85;;;3.55;;
76617;SDS011;65509;42.816;74.648;2023-05-20T03:14:28;26.58;;;3.75;;
76617;SDS011;65509;42.816;74.648;2023-05-20T03:16:53;30.33;;;4.03;;
76617;SDS011;65509;42.816;74.648;2023-05-20T03:19:21;32.60;;;4.13;;
76617;SDS011;65509;42.816;74.648;2023-05-20T03:21:47;34.78;;;4.28;;
76617;SDS011;65509;42.816;74.648;2023-05-20T03:24:16;41.35;;;4.85;;
76617;SDS011;65509;42.816;74.648;2023-05-20T03:26:42;30.80;;;4.05;;
76617;SDS011;65509;42.816;74.648;2023-05-20T03:29:08;30.38;;;4.68;;
76617;SDS011;65509;42.816;74.648;2023-05-20T03:31:34;33.55;;;4.45;;
76617;SDS011;65509;42.816;74.648;2023-05-20T03:33:59;41.55;;;6.00;;
76617;SDS011;65509;42.816;74.648;2023-05-20T03:36:25;30.00;;;3.83;;
76617;SDS011;65509;42.816;74.648;2023-05-20T03:38:50;39.08;;;5.07;;
76617;SDS011;65509;42.816;74.648;2023-05-20T03:41:16;49.53;;;5.85;;
76617;SDS011;65509;42.816;74.648;2023-05-20T03:43:41;35.30;;;4.32;;
76617;SDS011;65509;42.816;74.648;2023-05-20T03:46:07;24.67;;;3.70;;
76617;SDS011;65509;42.816;74.648;2023-05-20T03:48:32;26.52;;;3.90;;
76617;SDS011;65509;42.816;74.648;2023-05-20T03:50:58;30.08;;;3.63;;
76617;SDS011;65509;42.816;74.648;2023-05-20T03:53:23;44.95;;;5.38;;
76617;SDS011;65509;42.816;74.648;2023-05-20T03:55:49;41.05;;;4.97;;
76617;SDS011;65509;42.816;74.648;2023-05-20T03:58:14;28.90;;;3.95;;
76617;SDS011;65509;42.816;74.648;2023-05-20T04:00:40;28.38;;;3.80;;
76617;SDS011;65509;42.816;74.648;2023-05-20T04:03:05;38.65;;;4.63;;
76617;SDS011;65509;42.816;74.648;2023-05-20T04:05:31;43.15;;;5.13;;
76617;SDS011;65509;42.816;74.648;2023-05-20T04:07:56;40.38;;;4.95;;
76617;SDS011;65509;42.816;74.648;2023-05-20T04:10:22;46.15;;;5.22;;
76617;SDS011;65509;42.816;74.648;2023-05-20T04:12:48;37.15;;;4.85;;
76617;SDS011;65509;42.816;74.648;2023-05-20T04:15:14;38.17;;;4.45;;
76617;SDS011;65509;42.816;74.648;2023-05-20T04:17:40;24.92;;;3.58;;
76617;SDS011;65509;42.816;74.648;2023-05-20T04:20:05;24.00;;;3.65;;
76617;SDS011;65509;42.816;74.648;2023-05-20T04:22:32;50.47;;;5.85;;
76617;SDS011;65509;42.816;74.648;2023-05-20T04:24:58;33.80;;;4.35;;
76617;SDS011;65509;42.816;74.648;2023-05-20T04:27:24;42.92;;;5.28;;
76617;SDS011;65509;42.816;74.648;2023-05-20T04:29:50;38.58;;;4.68;;
76617;SDS011;65509;42.816;74.648;2023-05-20T04:32:17;50.65;;;5.85;;
76617;SDS011;65509;42.816;74.648;2023-05-20T04:34:43;21.60;;;2.80;;
76617;SDS011;65509;42.816;74.648;2023-05-20T04:37:09;41.88;;;5.05;;
76617;SDS011;65509;42.816;74.648;2023-05-20T04:39:35;47.15;;;5.68;;
76617;SDS011;65509;42.816;74.648;2023-05-20T04:42:01;27.50;;;3.78;;
76617;SDS011;65509;42.816;74.648;2023-05-20T04:44:27;23.52;;;3.38;;
76617;SDS011;65509;42.816;74.648;2023-05-20T04:46:52;41.95;;;4.97;;
76617;SDS011;65509;42.816;74.648;2023-05-20T04:49:18;42.45;;;5.03;;
76617;SDS011;65509;42.816;74.648;2023-05-20T04:51:43;37.05;;;4.55;;
76617;SDS011;65509;42.816;74.648;2023-05-20T04:54:09;26.73;;;3.53;;
76617;SDS011;65509;42.816;74.648;2023-05-20T04:56:34;38.70;;;4.72;;
76617;SDS011;65509;42.816;74.648;2023-05-20T04:59:00;39.95;;;5.35;;
76617;SDS011;65509;42.816;74.648;2023-05-20T05:01:26;45.00;;;5.68;;
76617;SDS011;65509;42.816;74.648;2023-05-20T05:03:51;30.25;;;4.43;;
76617;SDS011;65509;42.816;74.648;2023-05-20T05:06:17;38.58;;;5.28;;
76617;SDS011;65509;42.816;74.648;2023-05-20T05:08:42;44.88;;;5.53;;
76617;SDS011;65509;42.816;74.648;2023-05-20T05:11:17;35.88;;;4.82;;
76617;SDS011;65509;42.816;74.648;2023-05-20T05:13:42;38.25;;;5.18;;
76617;SDS011;65509;42.816;74.648;2023-05-20T05:16:08;49.15;;;6.43;;
76617;SDS011;65509;42.816;74.648;2023-05-20T05:18:33;48.17;;;6.22;;
76617;SDS011;65509;42.816;74.648;2023-05-20T05:21:03;61.58;;;7.88;;
76617;SDS011;65509;42.816;74.648;2023-05-20T05:23:29;51.65;;;7.22;;
76617;SDS011;65509;42.816;74.648;2023-05-20T05:25:54;25.67;;;4.20;;
76617;SDS011;65509;42.816;74.648;2023-05-20T05:28:20;39.10;;;5.93;;
76617;SDS011;65509;42.816;74.648;2023-05-20T05:30:46;25.13;;;4.38;;
76617;SDS011;65509;42.816;74.648;2023-05-20T05:33:13;35.85;;;5.15;;
76617;SDS011;65509;42.816;74.648;2023-05-20T05:35:47;19.90;;;3.67;;
76617;SDS011;65509;42.816;74.648;2023-05-20T05:38:12;46.10;;;5.93;;
76617;SDS011;65509;42.816;74.648;2023-05-20T05:40:38;50.97;;;6.63;;
76617;SDS011;65509;42.816;74.648;2023-05-20T05:43:03;39.38;;;5.78;;
76617;SDS011;65509;42.816;74.648;2023-05-20T05:45:29;41.38;;;5.88;;
76617;SDS011;65509;42.816;74.648;2023-05-20T05:47:54;42.03;;;5.78;;
76617;SDS011;65509;42.816;74.648;2023-05-20T05:50:20;52.88;;;6.90;;
76617;SDS011;65509;42.816;74.648;2023-05-20T05:52:45;43.47;;;5.82;;
76617;SDS011;65509;42.816;74.648;2023-05-20T05:55:11;51.65;;;6.88;;
76617;SDS011;65509;42.816;74.648;2023-05-20T05:57:37;39.83;;;5.55;;
76617;SDS011;65509;42.816;74.648;2023-05-20T06:00:02;43.65;;;6.32;;
76617;SDS011;65509;42.816;74.648;2023-05-20T06:02:28;61.67;;;7.55;;
76617;SDS011;65509;42.816;74.648;2023-05-20T06:04:54;43.95;;;5.95;;
76617;SDS011;65509;42.816;74.648;2023-05-20T06:13:34;55.65;;;6.40;;
76617;SDS011;65509;42.816;74.648;2023-05-20T06:15:59;37.13;;;5.57;;
76617;SDS011;65509;42.816;74.648;2023-05-20T06:18:25;39.53;;;6.05;;
76617;SDS011;65509;42.816;74.648;2023-05-20T06:20:57;27.77;;;4.65;;
76617;SDS011;65509;42.816;74.648;2023-05-20T06:23:22;31.92;;;5.45;;
76617;SDS011;65509;42.816;74.648;2023-05-20T06:25:48;57.67;;;7.85;;
76617;SDS011;65509;42.816;74.648;2023-05-20T06:28:14;39.85;;;5.88;;
76617;SDS011;65509;42.816;74.648;2023-05-20T06:30:40;36.53;;;5.88;;
76617;SDS011;65509;42.816;74.648;2023-05-20T06:33:05;24.88;;;4.55;;
76617;SDS011;65509;42.816;74.648;2023-05-20T06:35:31;49.95;;;7.43;;
76617;SDS011;65509;42.816;74.648;2023-05-20T06:37:58;23.42;;;4.32;;
76617;SDS011;65509;42.816;74.648;2023-05-20T06:43:22;41.97;;;6.20;;
76617;SDS011;65509;42.816;74.648;2023-05-20T06:45:57;48.53;;;6.97;;
76617;SDS011;65509;42.816;74.648;2023-05-20T06:48:22;42.38;;;5.85;;
76617;SDS011;65509;42.816;74.648;2023-05-20T06:50:48;35.15;;;5.88;;
76617;SDS011;65509;42.816;74.648;2023-05-20T06:53:13;39.58;;;5.82;;
76617;SDS011;65509;42.816;74.648;2023-05-20T06:55:42;42.55;;;7.60;;
76617;SDS011;65509;42.816;74.648;2023-05-20T06:58:08;43.97;;;7.68;;
76617;SDS011;65509;42.816;74.648;2023-05-20T07:00:33;36.88;;;6.82;;
76617;SDS011;65509;42.816;74.648;2023-05-20T07:02:59;33.58;;;6.28;;
76617;SDS011;65509;42.816;74.648;2023-05-20T07:05:24;42.88;;;6.70;;
76617;SDS011;65509;42.816;74.648;2023-05-20T07:07:51;30.75;;;5.43;;
76617;SDS011;65509;42.816;74.648;2023-05-20T07:10:17;26.45;;;4.97;;
76617;SDS011;65509;42.816;74.648;2023-05-20T07:12:42;38.53;;;6.10;;
76617;SDS011;65509;42.816;74.648;2023-05-20T07:15:08;33.80;;;6.65;;
76617;SDS011;65509;42.816;74.648;2023-05-20T07:17:33;48.55;;;7.43;;
76617;SDS011;65509;42.816;74.648;2023-05-20T07:19:59;27.70;;;4.88;;
76617;SDS011;65509;42.816;74.648;2023-05-20T07:22:28;38.45;;;5.78;;
76617;SDS011;65509;42.816;74.648;2023-05-20T07:24:53;50.05;;;7.20;;
76617;SDS011;65509;42.816;74.648;2023-05-20T07:27:19;42.45;;;5.30;;
76617;SDS011;65509;42.816;74.648;2023-05-20T07:29:49;42.38;;;6.88;;
76617;SDS011;65509;42.816;74.648;2023-05-20T07:32:15;28.45;;;5.72;;
76617;SDS011;65509;42.816;74.648;2023-05-20T07:34:41;43.70;;;8.38;;
76617;SDS011;65509;42.816;74.648;2023-05-20T07:37:07;23.67;;;4.95;;
76617;SDS011;65509;42.816;74.648;2023-05-20T07:39:34;30.27;;;7.32;;
76617;SDS011;65509;42.816;74.648;2023-05-20T07:41:59;54.00;;;8.80;;
76617;SDS011;65509;42.816;74.648;2023-05-20T07:44:25;33.75;;;6.05;;
76617;SDS011;65509;42.816;74.648;2023-05-20T07:46:51;98.68;;;11.07;;
76617;SDS011;65509;42.816;74.648;2023-05-20T07:49:16;47.03;;;7.82;;
76617;SDS011;65509;42.816;74.648;2023-05-20T07:51:41;56.53;;;8.65;;
76617;SDS011;65509;42.816;74.648;2023-05-20T07:54:16;31.27;;;5.22;;
76617;SDS011;65509;42.816;74.648;2023-05-20T07:56:41;37.55;;;5.78;;
76617;SDS011;65509;42.816;74.648;2023-05-20T07:59:16;30.92;;;5.47;;
76617;SDS011;65509;42.816;74.648;2023-05-20T08:01:41;35.78;;;5.45;;
76617;SDS011;65509;42.816;74.648;2023-05-20T08:26:13;13.85;;;4.15;;
76617;SDS011;65509;42.816;74.648;2023-05-20T08:28:38;9.32;;;3.72;;
76617;SDS011;65509;42.816;74.648;2023-05-20T08:31:04;13.05;;;4.20;;
76617;SDS011;65509;42.816;74.648;2023-05-20T08:33:31;18.65;;;4.65;;
76617;SDS011;65509;42.816;74.648;2023-05-20T08:35:56;14.98;;;4.47;;
76617;SDS011;65509;42.816;74.648;2023-05-20T08:38:22;20.13;;;4.57;;
76617;SDS011;65509;42.816;74.648;2023-05-20T08:40:50;39.25;;;5.53;;
76617;SDS011;65509;42.816;74.648;2023-05-20T08:43:16;28.75;;;5.55;;
76617;SDS011;65509;42.816;74.648;2023-05-20T08:45:44;38.78;;;6.07;;
76617;SDS011;65509;42.816;74.648;2023-05-20T08:48:10;20.90;;;5.82;;
76617;SDS011;65509;42.816;74.648;2023-05-20T08:50:35;33.10;;;6.30;;
76617;SDS011;65509;42.816;74.648;2023-05-20T08:53:01;28.75;;;5.65;;
76617;SDS011;65509;42.816;74.648;2023-05-20T08:55:32;25.85;;;6.20;;
76617;SDS011;65509;42.816;74.648;2023-05-20T08:58:05;42.22;;;6.22;;
76617;SDS011;65509;42.816;74.648;2023-05-20T09:00:31;43.10;;;6.78;;
76617;SDS011;65509;42.816;74.648;2023-05-20T09:02:59;22.48;;;4.05;;
76617;SDS011;65509;42.816;74.648;2023-05-20T09:19:27;35.10;;;5.95;;
76617;SDS011;65509;42.816;74.648;2023-05-20T09:21:52;69.03;;;8.43;;
76617;SDS011;65509;42.816;74.648;2023-05-20T09:24:22;34.67;;;5.93;;
76617;SDS011;65509;42.816;74.648;2023-05-20T09:26:49;32.25;;;5.00;;
76617;SDS011;65509;42.816;74.648;2023-05-20T09:29:14;54.38;;;8.25;;
76617;SDS011;65509;42.816;74.648;2023-05-20T09:31:40;58.17;;;6.88;;
76617;SDS011;65509;42.816;74.648;2023-05-20T09:34:05;50.10;;;6.28;;
76617;SDS011;65509;42.816;74.648;2023-05-20T09:36:32;54.47;;;6.75;;
76617;SDS011;65509;42.816;74.648;2023-05-20T09:38:59;54.95;;;7.55;;
76617;SDS011;65509;42.816;74.648;2023-05-20T09:41:37;39.42;;;6.00;;
76617;SDS011;65509;42.816;74.648;2023-05-20T09:44:03;28.75;;;4.97;;
76617;SDS011;65509;42.816;74.648;2023-05-20T09:46:33;38.45;;;5.90;;
76617;SDS011;65509;42.816;74.648;2023-05-20T09:49:00;37.63;;;5.90;;
76617;SDS011;65509;42.816;74.648;2023-05-20T09:51:26;40.33;;;7.38;;
76617;SDS011;65509;42.816;74.648;2023-05-20T09:53:53;44.75;;;7.28;;
76617;SDS011;65509;42.816;74.648;2023-05-20T09:56:19;31.05;;;5.95;;
76617;SDS011;65509;42.816;74.648;2023-05-20T09:58:46;49.00;;;7.50;;
76617;SDS011;65509;42.816;74.648;2023-05-20T10:01:13;37.47;;;7.03;;
76617;SDS011;65509;42.816;74.648;2023-05-20T10:03:42;32.30;;;5.78;;
76617;SDS011;65509;42.816;74.648;2023-05-20T10:21:31;31.40;;;6.07;;
76617;SDS011;65509;42.816;74.648;2023-05-20T10:24:09;34.95;;;6.15;;
76617;SDS011;65509;42.816;74.648;2023-05-20T10:26:35;20.67;;;4.28;;
76617;SDS011;65509;42.816;74.648;2023-05-20T10:29:01;29.00;;;4.50;;
76617;SDS011;65509;42.816;74.648;2023-05-20T10:31:26;63.53;;;7.53;;
76617;SDS011;65509;42.816;74.648;2023-05-20T10:33:52;50.28;;;7.72;;
76617;SDS011;65509;42.816;74.648;2023-05-20T10:36:21;46.25;;;6.85;;
76617;SDS011;65509;42.816;74.648;2023-05-20T10:38:51;41.50;;;6.13;;
76617;SDS011;65509;42.816;74.648;2023-05-20T10:41:19;60.85;;;6.85;;
76617;SDS011;65509;42.816;74.648;2023-05-20T10:43:45;54.67;;;6.80;;
76617;SDS011;65509;42.816;74.648;2023-05-20T10:46:16;51.13;;;11.95;;
76617;SDS011;65509;42.816;74.648;2023-05-20T10:48:50;44.35;;;8.23;;
76617;SDS011;65509;42.816;74.648;2023-05-20T10:51:16;55.50;;;9.02;;
76617;SDS011;65509;42.816;74.648;2023-05-20T10:53:45;46.85;;;9.35;;
76617;SDS011;65509;42.816;74.648;2023-05-20T10:56:17;60.30;;;9.60;;
76617;SDS011;65509;42.816;74.648;2023-05-20T10:58:43;42.83;;;8.65;;
76617;SDS011;65509;42.816;74.648;2023-05-20T11:01:09;35.13;;;10.05;;
76617;SDS011;65509;42.816;74.648;2023-05-20T11:03:39;56.05;;;14.30;;
76617;SDS011;65509;42.816;74.648;2023-05-20T11:06:14;39.58;;;7.55;;
76617;SDS011;65509;42.816;74.648;2023-05-20T11:08:43;49.08;;;9.65;;
76617;SDS011;65509;42.816;74.648;2023-05-20T11:11:11;67.40;;;16.63;;
76617;SDS011;65509;42.816;74.648;2023-05-20T11:13:37;70.22;;;13.55;;
76617;SDS011;65509;42.816;74.648;2023-05-20T11:16:02;56.45;;;9.98;;
76617;SDS011;65509;42.816;74.648;2023-05-20T11:18:29;39.42;;;6.18;;
76617;SDS011;65509;42.816;74.648;2023-05-20T11:21:01;44.58;;;6.47;;
76617;SDS011;65509;42.816;74.648;2023-05-20T11:23:27;46.03;;;8.10;;
76617;SDS011;65509;42.816;74.648;2023-05-20T11:25:53;47.33;;;9.45;;
76617;SDS011;65509;42.816;74.648;2023-05-20T11:28:19;43.08;;;7.63;;
76617;SDS011;65509;42.816;74.648;2023-05-20T11:30:45;37.65;;;6.90;;
76617;SDS011;65509;42.816;74.648;2023-05-20T11:33:11;70.13;;;19.13;;
76617;SDS011;65509;42.816;74.648;2023-05-20T11:35:37;70.85;;;19.98;;
76617;SDS011;65509;42.816;74.648;2023-05-20T11:38:11;41.90;;;9.07;;
76617;SDS011;65509;42.816;74.648;2023-05-20T11:40:36;58.13;;;8.20;;
76617;SDS011;65509;42.816;74.648;2023-05-20T11:43:02;44.08;;;6.80;;
76617;SDS011;65509;42.816;74.648;2023-05-20T11:45:40;51.97;;;9.45;;
76617;SDS011;65509;42.816;74.648;2023-05-20T11:48:06;31.65;;;6.53;;
76617;SDS011;65509;42.816;74.648;2023-05-20T11:50:33;49.05;;;6.75;;
76617;SDS011;65509;42.816;74.648;2023-05-20T11:53:00;46.30;;;6.60;;
76617;SDS011;65509;42.816;74.648;2023-05-20T11:55:33;52.92;;;7.50;;
76617;SDS011;65509;42.816;74.648;2023-05-20T11:57:59;60.88;;;11.48;;
76617;SDS011;65509;42.816;74.648;2023-05-20T12:00:25;54.72;;;8.65;;
76617;SDS011;65509;42.816;74.648;2023-05-20T12:02:50;50.53;;;7.25;;
76617;SDS011;65509;42.816;74.648;2023-05-20T12:05:16;45.90;;;6.93;;
76617;SDS011;65509;42.816;74.648;2023-05-20T12:07:42;65.70;;;8.48;;
76617;SDS011;65509;42.816;74.648;2023-05-20T12:10:08;18.95;;;3.95;;
76617;SDS011;65509;42.816;74.648;2023-05-20T12:12:37;32.80;;;5.65;;
76617;SDS011;65509;42.816;74.648;2023-05-20T12:15:03;23.17;;;5.00;;
76617;SDS011;65509;42.816;74.648;2023-05-20T12:17:30;39.97;;;6.03;;
76617;SDS011;65509;42.816;74.648;2023-05-20T12:19:56;43.47;;;6.45;;
76617;SDS011;65509;42.816;74.648;2023-05-20T12:22:21;49.47;;;7.43;;
76617;SDS011;65509;42.816;74.648;2023-05-20T12:24:48;77.32;;;7.63;;
76617;SDS011;65509;42.816;74.648;2023-05-20T12:27:14;71.43;;;7.07;;
76617;SDS011;65509;42.816;74.648;2023-05-20T12:29:39;37.53;;;5.10;;
76617;SDS011;65509;42.816;74.648;2023-05-20T12:32:05;32.95;;;4.63;;
76617;SDS011;65509;42.816;74.648;2023-05-20T12:34:30;36.15;;;5.32;;
76617;SDS011;65509;42.816;74.648;2023-05-20T12:36:57;35.78;;;5.22;;
76617;SDS011;65509;42.816;74.648;2023-05-20T12:39:22;33.70;;;4.40;;
76617;SDS011;65509;42.816;74.648;2023-05-20T12:41:48;49.30;;;6.43;;
76617;SDS011;65509;42.816;74.648;2023-05-20T12:44:13;28.80;;;4.70;;
76617;SDS011;65509;42.816;74.648;2023-05-20T12:46:39;53.40;;;6.47;;
76617;SDS011;65509;42.816;74.648;2023-05-20T12:49:04;41.55;;;4.97;;
76617;SDS011;65509;42.816;74.648;2023-05-20T12:51:30;33.75;;;4.90;;
76617;SDS011;65509;42.816;74.648;2023-05-20T12:53:55;57.45;;;7.07;;
76617;SDS011;65509;42.816;74.648;2023-05-20T12:56:21;28.58;;;4.95;;
76617;SDS011;65509;42.816;74.648;2023-05-20T12:58:47;51.83;;;7.43;;
76617;SDS011;65509;42.816;74.648;2023-05-20T13:01:13;54.08;;;6.28;;
76617;SDS011;65509;42.816;74.648;2023-05-20T13:03:38;31.05;;;4.53;;
76617;SDS011;65509;42.816;74.648;2023-05-20T13:06:04;49.10;;;5.97;;
76617;SDS011;65509;42.816;74.648;2023-05-20T13:08:29;34.92;;;5.65;;
76617;SDS011;65509;42.816;74.648;2023-05-20T13:10:55;55.67;;;7.20;;
76617;SDS011;65509;42.816;74.648;2023-05-20T13:13:20;44.20;;;6.55;;
76617;SDS011;65509;42.816;74.648;2023-05-20T13:15:49;46.63;;;6.78;;
76617;SDS011;65509;42.816;74.648;2023-05-20T13:18:15;43.90;;;7.95;;
76617;SDS011;65509;42.816;74.648;2023-05-20T13:20:43;33.03;;;6.60;;
76617;SDS011;65509;42.816;74.648;2023-05-20T13:23:09;30.83;;;6.07;;
76617;SDS011;65509;42.816;74.648;2023-05-20T13:25:34;36.22;;;7.15;;
76617;SDS011;65509;42.816;74.648;2023-05-20T13:28:01;30.95;;;6.40;;
76617;SDS011;65509;42.816;74.648;2023-05-20T13:30:26;39.38;;;7.93;;
76617;SDS011;65509;42.816;74.648;2023-05-20T13:32:52;34.13;;;6.43;;
76617;SDS011;65509;42.816;74.648;2023-05-20T13:35:21;33.83;;;6.15;;
76617;SDS011;65509;42.816;74.648;2023-05-20T13:37:46;35.63;;;6.10;;
76617;SDS011;65509;42.816;74.648;2023-05-20T13:40:12;33.83;;;5.82;;
76617;SDS011;65509;42.816;74.648;2023-05-20T13:42:37;33.83;;;5.90;;
76617;SDS011;65509;42.816;74.648;2023-05-20T13:45:03;39.38;;;6.07;;
76617;SDS011;65509;42.816;74.648;2023-05-20T13:47:28;40.22;;;6.43;;
76617;SDS011;65509;42.816;74.648;2023-05-20T13:49:57;48.67;;;6.68;;
76617;SDS011;65509;42.816;74.648;2023-05-20T13:52:25;44.15;;;6.10;;
76617;SDS011;65509;42.816;74.648;2023-05-20T13:54:50;87.30;;;31.02;;
76617;SDS011;65509;42.816;74.648;2023-05-20T13:57:16;44.28;;;8.73;;
76617;SDS011;65509;42.816;74.648;2023-05-20T13:59:41;33.78;;;10.15;;
76617;SDS011;65509;42.816;74.648;2023-05-20T14:02:09;77.60;;;24.33;;
76617;SDS011;65509;42.816;74.648;2023-05-20T14:04:35;70.75;;;24.50;;
76617;SDS011;65509;42.816;74.648;2023-05-20T14:07:06;68.28;;;26.98;;
76617;SDS011;65509;42.816;74.648;2023-05-20T14:09:32;59.35;;;22.75;;
76617;SDS011;65509;42.816;74.648;2023-05-20T14:11:57;77.78;;;14.65;;
76617;SDS011;65509;42.816;74.648;2023-05-20T14:14:22;30.95;;;8.10;;
76617;SDS011;65509;42.816;74.648;2023-05-20T14:16:48;65.80;;;18.42;;
76617;SDS011;65509;42.816;74.648;2023-05-20T14:19:13;39.47;;;10.13;;
76617;SDS011;65509;42.816;74.648;2023-05-20T14:21:39;27.75;;;7.60;;
76617;SDS011;65509;42.816;74.648;2023-05-20T14:24:13;31.58;;;8.05;;
76617;SDS011;65509;42.816;74.648;2023-05-20T14:26:49;116.47;;;41.80;;
76617;SDS011;65509;42.816;74.648;2023-05-20T14:29:17;89.75;;;34.83;;
76617;SDS011;65509;42.816;74.648;2023-05-20T14:31:43;108.82;;;46.80;;
76617;SDS011;65509;42.816;74.648;2023-05-20T14:34:09;44.17;;;13.20;;
76617;SDS011;65509;42.816;74.648;2023-05-20T14:36:34;73.93;;;28.48;;
76617;SDS011;65509;42.816;74.648;2023-05-20T14:39:00;45.67;;;15.35;;
76617;SDS011;65509;42.816;74.648;2023-05-20T14:41:25;50.17;;;13.10;;
76617;SDS011;65509;42.816;74.648;2023-05-20T14:43:51;64.80;;;19.23;;
76617;SDS011;65509;42.816;74.648;2023-05-20T14:46:16;80.05;;;31.85;;
76617;SDS011;65509;42.816;74.648;2023-05-20T14:48:42;72.68;;;28.80;;
76617;SDS011;65509;42.816;74.648;2023-05-20T14:51:07;56.63;;;16.50;;
76617;SDS011;65509;42.816;74.648;2023-05-20T14:53:33;37.88;;;9.35;;
76617;SDS011;65509;42.816;74.648;2023-05-20T14:55:58;39.03;;;7.85;;
76617;SDS011;65509;42.816;74.648;2023-05-20T14:58:27;35.42;;;7.65;;
76617;SDS011;65509;42.816;74.648;2023-05-20T15:00:54;43.33;;;8.93;;
76617;SDS011;65509;42.816;74.648;2023-05-20T15:03:20;36.72;;;8.02;;
76617;SDS011;65509;42.816;74.648;2023-05-20T15:05:48;28.42;;;7.13;;
76617;SDS011;65509;42.816;74.648;2023-05-20T15:08:14;26.10;;;8.20;;
76617;SDS011;65509;42.816;74.648;2023-05-20T15:10:39;45.67;;;9.63;;
76617;SDS011;65509;42.816;74.648;2023-05-20T15:13:05;37.08;;;9.32;;
76617;SDS011;65509;42.816;74.648;2023-05-20T15:15:30;34.78;;;10.70;;
76617;SDS011;65509;42.816;74.648;2023-05-20T15:17:58;39.05;;;9.98;;
76617;SDS011;65509;42.816;74.648;2023-05-20T15:20:23;32.92;;;9.88;;
76617;SDS011;65509;42.816;74.648;2023-05-20T15:22:49;38.70;;;10.60;;